sensor_id;sensor_type;location;lat;lon;timestamp;pressure;altitude;pressure_sealevel;temperature;humidity
10988;BME280;5547;42.672;23.230;2022-08-03T00:02:22;93472.94;;;14.60;72.54
10988;BME280;5547;42.672;23.230;2022-08-03T00:04:47;93520.31;;;15.02;73.63
10988;BME280;5547;42.672;23.230;2022-08-03T00:07:12;93234.09;;;13.08;73.41
10988;BME280;5547;42.672;23.230;2022-08-03T00:09:38;93416.22;;;14.23;73.52
10988;BME280;5547;42.672;23.230;2022-08-03T00:12:03;93523.31;;;14.91;73.27
10988;BME280;5547;42.672;23.230;2022-08-03T00:14:29;93301.00;;;13.47;72.37
10988;BME280;5547;42.672;23.230;2022-08-03T00:16:55;93449.00;;;14.53;71.61
10988;BME280;5547;42.672;23.230;2022-08-03T00:19:20;93492.47;;;14.86;71.33
10988;BME280;5547;42.672;23.230;2022-08-03T00:21:45;93482.47;;;14.74;72.30
10988;BME280;5547;42.672;23.230;2022-08-03T00:24:11;93393.50;;;14.15;71.32
10988;BME280;5547;42.672;23.230;2022-08-03T00:26:36;93481.72;;;14.74;71.83
10988;BME280;5547;42.672;23.230;2022-08-03T00:29:02;93486.88;;;14.81;72.63
10988;BME280;5547;42.672;23.230;2022-08-03T00:31:27;93534.25;;;14.97;73.04
10988;BME280;5547;42.672;23.230;2022-08-03T00:33:53;93522.47;;;14.94;73.00
10988;BME280;5547;42.672;23.230;2022-08-03T00:36:18;93510.88;;;14.84;72.61
10988;BME280;5547;42.672;23.230;2022-08-03T00:38:44;93428.19;;;14.32;73.42
10988;BME280;5547;42.672;23.230;2022-08-03T00:41:09;93517.84;;;14.82;73.06
10988;BME280;5547;42.672;23.230;2022-08-03T00:43:34;93482.56;;;14.58;72.38
10988;BME280;5547;42.672;23.230;2022-08-03T00:46:00;93516.13;;;14.88;72.05
10988;BME280;5547;42.672;23.230;2022-08-03T00:48:25;93331.41;;;13.53;72.29
10988;BME280;5547;42.672;23.230;2022-08-03T00:50:51;93507.97;;;14.79;72.55
10988;BME280;5547;42.672;23.230;2022-08-03T00:53:17;93505.81;;;14.74;72.69
10988;BME280;5547;42.672;23.230;2022-08-03T00:55:43;93510.03;;;14.75;73.07
10988;BME280;5547;42.672;23.230;2022-08-03T00:58:09;93476.75;;;14.46;72.75
10988;BME280;5547;42.672;23.230;2022-08-03T01:00:37;93355.91;;;13.64;72.61
10988;BME280;5547;42.672;23.230;2022-08-03T01:03:03;93505.59;;;14.68;72.75
10988;BME280;5547;42.672;23.230;2022-08-03T01:05:43;93388.78;;;13.77;73.20
10988;BME280;5547;42.672;23.230;2022-08-03T01:08:21;93388.28;;;13.82;73.61
10988;BME280;5547;42.672;23.230;2022-08-03T01:11:05;93483.88;;;14.37;73.65
10988;BME280;5547;42.672;23.230;2022-08-03T01:13:52;93503.38;;;14.50;74.38
10988;BME280;5547;42.672;23.230;2022-08-03T01:16:32;93495.41;;;14.34;74.88
10988;BME280;5547;42.672;23.230;2022-08-03T01:22:28;93498.16;;;14.17;75.38
10988;BME280;5547;42.672;23.230;2022-08-03T01:30:08;93448.09;;;13.72;76.31
10988;BME280;5547;42.672;23.230;2022-08-03T01:35:38;93445.31;;;13.92;76.31
10988;BME280;5547;42.672;23.230;2022-08-03T01:38:11;93504.78;;;14.25;76.69
10988;BME280;5547;42.672;23.230;2022-08-03T01:40:39;93374.34;;;13.29;76.13
10988;BME280;5547;42.672;23.230;2022-08-03T01:43:07;93499.75;;;14.15;76.33
10988;BME280;5547;42.672;23.230;2022-08-03T01:45:35;93480.66;;;13.83;75.88
10988;BME280;5547;42.672;23.230;2022-08-03T01:48:01;93498.94;;;14.01;76.63
10988;BME280;5547;42.672;23.230;2022-08-03T01:50:28;93468.56;;;13.79;76.52
10988;BME280;5547;42.672;23.230;2022-08-03T01:52:55;93497.84;;;13.99;77.41
10988;BME280;5547;42.672;23.230;2022-08-03T01:55:23;93503.09;;;14.02;77.90
10988;BME280;5547;42.672;23.230;2022-08-03T01:57:50;93499.63;;;13.89;78.63
10988;BME280;5547;42.672;23.230;2022-08-03T02:00:17;93469.94;;;13.54;78.83
10988;BME280;5547;42.672;23.230;2022-08-03T02:02:46;93347.72;;;12.76;79.01
10988;BME280;5547;42.672;23.230;2022-08-03T02:05:13;93381.53;;;12.83;78.67
10988;BME280;5547;42.672;23.230;2022-08-03T02:07:40;93471.03;;;13.40;77.47
10988;BME280;5547;42.672;23.230;2022-08-03T02:10:07;93484.78;;;13.39;77.07
10988;BME280;5547;42.672;23.230;2022-08-03T02:12:35;93501.09;;;13.61;78.00
10988;BME280;5547;42.672;23.230;2022-08-03T02:15:02;93502.41;;;13.53;77.16
10988;BME280;5547;42.672;23.230;2022-08-03T02:17:29;93468.84;;;13.35;78.03
10988;BME280;5547;42.672;23.230;2022-08-03T02:19:57;93510.84;;;13.51;79.99
10988;BME280;5547;42.672;23.230;2022-08-03T02:22:24;93503.72;;;13.44;80.94
10988;BME280;5547;42.672;23.230;2022-08-03T02:24:51;93418.88;;;12.83;82.03
10988;BME280;5547;42.672;23.230;2022-08-03T02:27:23;93389.75;;;12.56;82.23
10988;BME280;5547;42.672;23.230;2022-08-03T02:29:54;93500.13;;;13.35;80.53
10988;BME280;5547;42.672;23.230;2022-08-03T02:32:27;93443.44;;;12.94;80.47
10988;BME280;5547;42.672;23.230;2022-08-03T02:34:55;93495.53;;;13.35;82.86
10988;BME280;5547;42.672;23.230;2022-08-03T02:37:26;93500.88;;;13.35;83.39
10988;BME280;5547;42.672;23.230;2022-08-03T02:39:58;93509.41;;;13.30;81.20
10988;BME280;5547;42.672;23.230;2022-08-03T02:42:27;93500.97;;;13.32;81.68
10988;BME280;5547;42.672;23.230;2022-08-03T02:44:59;93467.88;;;13.25;81.32
10988;BME280;5547;42.672;23.230;2022-08-03T02:47:27;93464.06;;;13.27;81.94
10988;BME280;5547;42.672;23.230;2022-08-03T02:49:55;93433.25;;;13.06;81.56
10988;BME280;5547;42.672;23.230;2022-08-03T02:52:24;93473.88;;;13.33;81.43
10988;BME280;5547;42.672;23.230;2022-08-03T02:54:55;93491.31;;;13.38;81.60
10988;BME280;5547;42.672;23.230;2022-08-03T02:57:24;93446.78;;;13.15;82.65
10988;BME280;5547;42.672;23.230;2022-08-03T02:59:51;93484.72;;;13.42;81.99
10988;BME280;5547;42.672;23.230;2022-08-03T03:02:18;93486.63;;;13.42;81.92
10988;BME280;5547;42.672;23.230;2022-08-03T03:04:44;93490.06;;;13.42;82.38
10988;BME280;5547;42.672;23.230;2022-08-03T03:07:14;93502.97;;;13.44;83.80
10988;BME280;5547;42.672;23.230;2022-08-03T03:09:41;93500.41;;;13.40;82.68
10988;BME280;5547;42.672;23.230;2022-08-03T03:12:08;93416.28;;;12.79;82.23
10988;BME280;5547;42.672;23.230;2022-08-03T03:14:36;93448.59;;;13.01;80.31
10988;BME280;5547;42.672;23.230;2022-08-03T03:17:04;93508.44;;;13.57;79.25
10988;BME280;5547;42.672;23.230;2022-08-03T03:19:31;93515.94;;;13.62;78.64
10988;BME280;5547;42.672;23.230;2022-08-03T03:21:59;93522.53;;;13.57;78.86
10988;BME280;5547;42.672;23.230;2022-08-03T03:24:26;93526.47;;;13.53;81.38
10988;BME280;5547;42.672;23.230;2022-08-03T03:26:53;93530.13;;;13.59;82.54
10988;BME280;5547;42.672;23.230;2022-08-03T03:29:18;93523.44;;;13.51;82.71
10988;BME280;5547;42.672;23.230;2022-08-03T03:31:44;93480.22;;;13.03;83.63
10988;BME280;5547;42.672;23.230;2022-08-03T03:34:10;93534.72;;;13.42;83.14
10988;BME280;5547;42.672;23.230;2022-08-03T03:36:36;93407.81;;;12.48;83.69
10988;BME280;5547;42.672;23.230;2022-08-03T03:39:01;93451.31;;;12.81;84.07
10988;BME280;5547;42.672;23.230;2022-08-03T03:41:27;93535.13;;;13.40;84.94
10988;BME280;5547;42.672;23.230;2022-08-03T03:43:53;93541.63;;;13.39;85.23
10988;BME280;5547;42.672;23.230;2022-08-03T03:46:19;93545.72;;;13.44;85.72
10988;BME280;5547;42.672;23.230;2022-08-03T03:48:44;93498.84;;;13.23;83.67
10988;BME280;5547;42.672;23.230;2022-08-03T03:51:10;93521.44;;;13.38;83.70
10988;BME280;5547;42.672;23.230;2022-08-03T03:53:35;93546.06;;;13.62;83.57
10988;BME280;5547;42.672;23.230;2022-08-03T03:56:01;93472.16;;;13.23;82.22
10988;BME280;5547;42.672;23.230;2022-08-03T03:58:26;93504.50;;;13.45;83.80
10988;BME280;5547;42.672;23.230;2022-08-03T04:00:52;93510.66;;;13.75;82.40
10988;BME280;5547;42.672;23.230;2022-08-03T04:03:18;93537.03;;;14.05;82.33
10988;BME280;5547;42.672;23.230;2022-08-03T04:05:44;92955.44;;;10.25;79.96
10988;BME280;5547;42.672;23.230;2022-08-03T04:08:28;93558.56;;;14.31;80.64
10988;BME280;5547;42.672;23.230;2022-08-03T04:11:13;93536.94;;;14.55;79.16
10988;BME280;5547;42.672;23.230;2022-08-03T04:13:54;93540.28;;;14.71;79.89
10988;BME280;5547;42.672;23.230;2022-08-03T04:16:24;93453.88;;;14.29;80.53
10988;BME280;5547;42.672;23.230;2022-08-03T04:19:02;93451.38;;;14.51;78.92
10988;BME280;5547;42.672;23.230;2022-08-03T04:21:29;93516.47;;;15.16;79.31
10988;BME280;5547;42.672;23.230;2022-08-03T04:24:00;93539.31;;;15.59;78.67
10988;BME280;5547;42.672;23.230;2022-08-03T04:26:29;93543.78;;;15.87;77.81
10988;BME280;5547;42.672;23.230;2022-08-03T04:28:56;93323.91;;;14.70;76.24
10988;BME280;5547;42.672;23.230;2022-08-03T04:31:23;93540.50;;;16.53;77.28
10988;BME280;5547;42.672;23.230;2022-08-03T04:33:51;93510.34;;;16.71;73.18
10988;BME280;5547;42.672;23.230;2022-08-03T04:36:20;93535.91;;;17.29;72.04
10988;BME280;5547;42.672;23.230;2022-08-03T04:38:59;93543.19;;;17.59;69.56
10988;BME280;5547;42.672;23.230;2022-08-03T04:41:27;93548.25;;;17.89;67.13
10988;BME280;5547;42.672;23.230;2022-08-03T04:43:55;93543.19;;;18.18;65.36
10988;BME280;5547;42.672;23.230;2022-08-03T04:46:22;93465.66;;;17.76;64.11
10988;BME280;5547;42.672;23.230;2022-08-03T04:48:50;93523.78;;;18.23;63.84
10988;BME280;5547;42.672;23.230;2022-08-03T04:51:16;93549.94;;;18.78;63.28
10988;BME280;5547;42.672;23.230;2022-08-03T04:53:42;93560.72;;;18.78;63.47
10988;BME280;5547;42.672;23.230;2022-08-03T04:56:08;93557.44;;;18.83;63.38
10988;BME280;5547;42.672;23.230;2022-08-03T04:58:33;93545.34;;;18.79;63.47
10988;BME280;5547;42.672;23.230;2022-08-03T05:00:59;93563.53;;;19.12;62.35
10988;BME280;5547;42.672;23.230;2022-08-03T05:03:24;93471.81;;;18.60;62.41
10988;BME280;5547;42.672;23.230;2022-08-03T05:05:51;93522.25;;;18.78;61.49
10988;BME280;5547;42.672;23.230;2022-08-03T05:08:17;93567.88;;;19.09;62.09
10988;BME280;5547;42.672;23.230;2022-08-03T05:10:42;93513.13;;;18.75;62.22
10988;BME280;5547;42.672;23.230;2022-08-03T05:13:07;93557.09;;;19.09;62.69
10988;BME280;5547;42.672;23.230;2022-08-03T05:15:38;93544.09;;;18.89;62.45
10988;BME280;5547;42.672;23.230;2022-08-03T05:18:03;93584.03;;;19.18;64.00
10988;BME280;5547;42.672;23.230;2022-08-03T05:20:29;93581.34;;;19.27;63.76
10988;BME280;5547;42.672;23.230;2022-08-03T05:22:55;93586.44;;;19.16;61.94
10988;BME280;5547;42.672;23.230;2022-08-03T05:25:21;93576.09;;;19.24;60.63
10988;BME280;5547;42.672;23.230;2022-08-03T05:27:47;93584.88;;;19.43;61.24
10988;BME280;5547;42.672;23.230;2022-08-03T05:30:12;93553.16;;;19.28;60.90
10988;BME280;5547;42.672;23.230;2022-08-03T05:32:38;93387.78;;;18.37;60.18
10988;BME280;5547;42.672;23.230;2022-08-03T05:35:04;93541.25;;;19.44;58.84
10988;BME280;5547;42.672;23.230;2022-08-03T05:37:29;93581.06;;;19.59;58.72
10988;BME280;5547;42.672;23.230;2022-08-03T05:39:54;93595.91;;;19.63;60.37
10988;BME280;5547;42.672;23.230;2022-08-03T05:42:20;93365.41;;;18.03;60.29
10988;BME280;5547;42.672;23.230;2022-08-03T05:44:45;93597.66;;;19.85;59.70
10988;BME280;5547;42.672;23.230;2022-08-03T05:47:11;93598.47;;;20.00;61.37
10988;BME280;5547;42.672;23.230;2022-08-03T05:49:36;93563.81;;;19.75;60.39
10988;BME280;5547;42.672;23.230;2022-08-03T05:52:02;93598.91;;;19.99;58.87
10988;BME280;5547;42.672;23.230;2022-08-03T05:54:27;93540.34;;;19.90;58.93
10988;BME280;5547;42.672;23.230;2022-08-03T05:56:53;93597.97;;;20.11;58.00
10988;BME280;5547;42.672;23.230;2022-08-03T05:59:18;93602.97;;;20.27;57.75
10988;BME280;5547;42.672;23.230;2022-08-03T06:01:44;93547.06;;;20.19;57.91
10988;BME280;5547;42.672;23.230;2022-08-03T06:04:09;93604.94;;;20.75;56.83
10988;BME280;5547;42.672;23.230;2022-08-03T06:06:35;93620.00;;;20.67;59.84
10988;BME280;5547;42.672;23.230;2022-08-03T06:09:00;93608.81;;;20.98;56.25
10988;BME280;5547;42.672;23.230;2022-08-03T06:11:25;93572.75;;;20.77;55.73
10988;BME280;5547;42.672;23.230;2022-08-03T06:13:51;93605.47;;;21.18;57.38
10988;BME280;5547;42.672;23.230;2022-08-03T06:16:16;93561.88;;;20.86;56.37
10988;BME280;5547;42.672;23.230;2022-08-03T06:18:42;93562.59;;;20.72;55.44
10988;BME280;5547;42.672;23.230;2022-08-03T06:21:07;93614.75;;;21.02;56.48
10988;BME280;5547;42.672;23.230;2022-08-03T06:23:32;93531.56;;;20.67;55.37
10988;BME280;5547;42.672;23.230;2022-08-03T06:25:58;93571.41;;;20.96;54.64
10988;BME280;5547;42.672;23.230;2022-08-03T06:28:23;93595.78;;;21.41;53.52
10988;BME280;5547;42.672;23.230;2022-08-03T06:30:49;93606.88;;;21.58;51.85
10988;BME280;5547;42.672;23.230;2022-08-03T06:33:14;93615.63;;;21.82;51.35
10988;BME280;5547;42.672;23.230;2022-08-03T06:35:40;93578.63;;;21.59;51.19
10988;BME280;5547;42.672;23.230;2022-08-03T06:38:06;93616.97;;;21.72;49.16
10988;BME280;5547;42.672;23.230;2022-08-03T06:40:34;93611.09;;;21.59;49.88
10988;BME280;5547;42.672;23.230;2022-08-03T06:43:04;93522.88;;;20.63;51.70
10988;BME280;5547;42.672;23.230;2022-08-03T06:45:31;93615.28;;;21.60;51.75
10988;BME280;5547;42.672;23.230;2022-08-03T06:48:06;93593.69;;;21.80;50.74
10988;BME280;5547;42.672;23.230;2022-08-03T06:50:32;93593.06;;;22.06;51.14
10988;BME280;5547;42.672;23.230;2022-08-03T06:53:00;93566.06;;;21.76;51.48
10988;BME280;5547;42.672;23.230;2022-08-03T06:55:25;93563.97;;;21.36;51.79
10988;BME280;5547;42.672;23.230;2022-08-03T06:57:51;93610.94;;;21.98;50.68
10988;BME280;5547;42.672;23.230;2022-08-03T07:00:17;93587.25;;;21.78;50.15
10988;BME280;5547;42.672;23.230;2022-08-03T07:02:42;93606.63;;;22.06;50.92
10988;BME280;5547;42.672;23.230;2022-08-03T07:05:09;93589.56;;;22.00;50.12
10988;BME280;5547;42.672;23.230;2022-08-03T07:07:35;93586.88;;;21.85;51.16
10988;BME280;5547;42.672;23.230;2022-08-03T07:10:00;93557.88;;;21.71;53.50
10988;BME280;5547;42.672;23.230;2022-08-03T07:12:27;93583.47;;;22.05;50.88
10988;BME280;5547;42.672;23.230;2022-08-03T07:14:53;93594.38;;;22.46;51.49
10988;BME280;5547;42.672;23.230;2022-08-03T07:17:19;93591.81;;;22.37;50.09
10988;BME280;5547;42.672;23.230;2022-08-03T07:19:44;93511.47;;;21.98;50.77
10988;BME280;5547;42.672;23.230;2022-08-03T07:22:10;93613.28;;;22.61;49.38
10988;BME280;5547;42.672;23.230;2022-08-03T07:24:36;93586.91;;;22.41;49.31
10988;BME280;5547;42.672;23.230;2022-08-03T07:27:01;93612.78;;;22.21;50.50
10988;BME280;5547;42.672;23.230;2022-08-03T07:29:27;93605.38;;;22.22;50.24
10988;BME280;5547;42.672;23.230;2022-08-03T07:31:53;93611.50;;;22.37;50.37
10988;BME280;5547;42.672;23.230;2022-08-03T07:34:18;93617.69;;;22.58;49.82
10988;BME280;5547;42.672;23.230;2022-08-03T07:36:43;93636.38;;;22.56;49.50
10988;BME280;5547;42.672;23.230;2022-08-03T07:39:09;93586.91;;;22.41;50.05
10988;BME280;5547;42.672;23.230;2022-08-03T07:41:34;93405.75;;;21.31;48.94
10988;BME280;5547;42.672;23.230;2022-08-03T07:44:00;93612.94;;;22.74;49.01
10988;BME280;5547;42.672;23.230;2022-08-03T07:46:25;93580.88;;;22.52;47.75
10988;BME280;5547;42.672;23.230;2022-08-03T07:48:51;93628.16;;;22.71;47.29
10988;BME280;5547;42.672;23.230;2022-08-03T07:51:17;93608.44;;;22.91;49.74
10988;BME280;5547;42.672;23.230;2022-08-03T07:53:42;93631.09;;;23.09;46.32
10988;BME280;5547;42.672;23.230;2022-08-03T07:56:08;93624.34;;;23.24;46.64
10988;BME280;5547;42.672;23.230;2022-08-03T07:58:34;93554.22;;;22.71;45.85
10988;BME280;5547;42.672;23.230;2022-08-03T08:01:00;93585.94;;;22.85;47.24
10988;BME280;5547;42.672;23.230;2022-08-03T08:03:25;93630.78;;;23.53;46.62
10988;BME280;5547;42.672;23.230;2022-08-03T08:05:51;93623.00;;;23.40;44.78
10988;BME280;5547;42.672;23.230;2022-08-03T08:08:18;93623.88;;;23.26;44.59
10988;BME280;5547;42.672;23.230;2022-08-03T08:10:44;93627.66;;;23.34;47.81
10988;BME280;5547;42.672;23.230;2022-08-03T08:13:09;93584.50;;;23.36;44.61
10988;BME280;5547;42.672;23.230;2022-08-03T08:15:35;93604.00;;;23.66;44.39
10988;BME280;5547;42.672;23.230;2022-08-03T08:18:00;93635.13;;;23.71;43.20
10988;BME280;5547;42.672;23.230;2022-08-03T08:20:31;93634.19;;;23.74;43.29
10988;BME280;5547;42.672;23.230;2022-08-03T08:23:01;93599.56;;;23.69;41.83
10988;BME280;5547;42.672;23.230;2022-08-03T08:25:29;93630.97;;;24.07;44.13
10988;BME280;5547;42.672;23.230;2022-08-03T08:27:55;93536.59;;;23.01;44.62
10988;BME280;5547;42.672;23.230;2022-08-03T08:30:22;93628.59;;;23.83;43.99
10988;BME280;5547;42.672;23.230;2022-08-03T08:32:48;93616.81;;;23.92;44.54
10988;BME280;5547;42.672;23.230;2022-08-03T08:35:15;93622.69;;;24.28;43.23
10988;BME280;5547;42.672;23.230;2022-08-03T08:37:41;93580.59;;;24.12;45.43
10988;BME280;5547;42.672;23.230;2022-08-03T08:40:07;93621.03;;;24.36;44.30
10988;BME280;5547;42.672;23.230;2022-08-03T08:42:36;93595.56;;;24.39;43.13
10988;BME280;5547;42.672;23.230;2022-08-03T08:45:03;93623.25;;;24.86;39.88
10988;BME280;5547;42.672;23.230;2022-08-03T08:47:31;93574.75;;;24.25;40.67
10988;BME280;5547;42.672;23.230;2022-08-03T08:49:58;93609.47;;;24.47;41.77
10988;BME280;5547;42.672;23.230;2022-08-03T08:52:25;93559.38;;;24.16;40.77
10988;BME280;5547;42.672;23.230;2022-08-03T08:54:57;93581.41;;;24.24;42.98
10988;BME280;5547;42.672;23.230;2022-08-03T08:57:28;93593.44;;;24.49;43.20
10988;BME280;5547;42.672;23.230;2022-08-03T08:59:55;93586.97;;;24.46;41.20
10988;BME280;5547;42.672;23.230;2022-08-03T09:02:24;93604.22;;;24.98;44.02
10988;BME280;5547;42.672;23.230;2022-08-03T09:04:50;93606.75;;;25.12;41.61
10988;BME280;5547;42.672;23.230;2022-08-03T09:07:16;93514.56;;;24.49;40.92
10988;BME280;5547;42.672;23.230;2022-08-03T09:09:42;93602.72;;;24.85;41.77
10988;BME280;5547;42.672;23.230;2022-08-03T09:12:08;93480.09;;;24.18;41.84
10988;BME280;5547;42.672;23.230;2022-08-03T09:14:34;93604.91;;;24.81;39.76
10988;BME280;5547;42.672;23.230;2022-08-03T09:17:01;93599.09;;;25.16;42.41
10988;BME280;5547;42.672;23.230;2022-08-03T09:19:29;93475.03;;;24.48;40.26
10988;BME280;5547;42.672;23.230;2022-08-03T09:22:11;93605.09;;;25.71;38.21
10988;BME280;5547;42.672;23.230;2022-08-03T09:24:52;93591.47;;;25.71;38.20
10988;BME280;5547;42.672;23.230;2022-08-03T09:27:19;93540.50;;;25.21;37.77
10988;BME280;5547;42.672;23.230;2022-08-03T09:29:49;93580.59;;;25.66;39.22
10988;BME280;5547;42.672;23.230;2022-08-03T09:32:18;93548.66;;;25.38;38.73
10988;BME280;5547;42.672;23.230;2022-08-03T09:34:46;93554.59;;;25.76;40.84
10988;BME280;5547;42.672;23.230;2022-08-03T09:37:17;93591.75;;;26.07;38.47
10988;BME280;5547;42.672;23.230;2022-08-03T09:39:43;93570.66;;;25.85;38.16
10988;BME280;5547;42.672;23.230;2022-08-03T09:42:17;93580.38;;;25.97;41.95
10988;BME280;5547;42.672;23.230;2022-08-03T09:44:47;93600.91;;;25.87;40.75
10988;BME280;5547;42.672;23.230;2022-08-03T09:47:30;93597.94;;;26.08;36.97
10988;BME280;5547;42.672;23.230;2022-08-03T09:50:06;93585.75;;;26.20;37.34
10988;BME280;5547;42.672;23.230;2022-08-03T09:52:34;93581.28;;;26.28;37.13
10988;BME280;5547;42.672;23.230;2022-08-03T09:55:02;93583.25;;;26.39;39.70
10988;BME280;5547;42.672;23.230;2022-08-03T09:57:32;93566.56;;;26.54;36.42
10988;BME280;5547;42.672;23.230;2022-08-03T10:00:12;93590.63;;;26.50;36.32
10988;BME280;5547;42.672;23.230;2022-08-03T10:02:42;93587.53;;;26.87;36.34
10988;BME280;5547;42.672;23.230;2022-08-03T10:05:10;93582.00;;;26.98;36.01
10988;BME280;5547;42.672;23.230;2022-08-03T10:07:46;93587.63;;;27.17;35.22
10988;BME280;5547;42.672;23.230;2022-08-03T10:10:13;93589.50;;;26.92;35.65
10988;BME280;5547;42.672;23.230;2022-08-03T10:12:40;93581.66;;;27.19;36.61
10988;BME280;5547;42.672;23.230;2022-08-03T10:15:06;93572.16;;;27.31;33.27
10988;BME280;5547;42.672;23.230;2022-08-03T10:17:33;93542.19;;;26.78;34.91
10988;BME280;5547;42.672;23.230;2022-08-03T10:19:58;93575.88;;;26.87;36.43
10988;BME280;5547;42.672;23.230;2022-08-03T10:22:30;93577.31;;;26.99;34.86
10988;BME280;5547;42.672;23.230;2022-08-03T10:25:11;93541.94;;;27.23;33.62
10988;BME280;5547;42.672;23.230;2022-08-03T10:27:41;93519.53;;;26.95;34.26
10988;BME280;5547;42.672;23.230;2022-08-03T10:30:11;93542.75;;;27.13;32.99
10988;BME280;5547;42.672;23.230;2022-08-03T10:32:47;93563.78;;;27.59;35.21
10988;BME280;5547;42.672;23.230;2022-08-03T10:35:18;93504.72;;;27.20;34.87
10988;BME280;5547;42.672;23.230;2022-08-03T10:37:51;93564.38;;;27.47;34.47
10988;BME280;5547;42.672;23.230;2022-08-03T10:40:21;93513.56;;;27.32;34.78
10988;BME280;5547;42.672;23.230;2022-08-03T10:42:48;93543.06;;;27.70;34.14
10988;BME280;5547;42.672;23.230;2022-08-03T10:45:20;93560.09;;;27.51;34.21
10988;BME280;5547;42.672;23.230;2022-08-03T10:47:48;93564.38;;;27.47;33.55
10988;BME280;5547;42.672;23.230;2022-08-03T10:50:15;93482.00;;;27.01;34.35
10988;BME280;5547;42.672;23.230;2022-08-03T10:52:58;93559.63;;;27.47;34.54
10988;BME280;5547;42.672;23.230;2022-08-03T10:55:30;93552.41;;;27.50;34.54
10988;BME280;5547;42.672;23.230;2022-08-03T10:58:14;93560.41;;;27.78;34.12
10988;BME280;5547;42.672;23.230;2022-08-03T11:00:49;93494.44;;;27.62;35.06
10988;BME280;5547;42.672;23.230;2022-08-03T11:03:15;93565.16;;;27.72;35.22
10988;BME280;5547;42.672;23.230;2022-08-03T11:05:44;93521.84;;;27.57;34.53
10988;BME280;5547;42.672;23.230;2022-08-03T11:08:28;93552.06;;;27.64;34.61
10988;BME280;5547;42.672;23.230;2022-08-03T11:14:01;93538.00;;;27.55;32.96
10988;BME280;5547;42.672;23.230;2022-08-03T11:16:37;93548.94;;;27.49;33.95
10988;BME280;5547;42.672;23.230;2022-08-03T11:19:14;93519.16;;;27.15;34.21
10988;BME280;5547;42.672;23.230;2022-08-03T11:27:15;93546.69;;;27.53;33.01
10988;BME280;5547;42.672;23.230;2022-08-03T11:40:47;93526.84;;;27.77;33.71
10988;BME280;5547;42.672;23.230;2022-08-03T11:48:39;93535.66;;;27.64;33.84
10988;BME280;5547;42.672;23.230;2022-08-03T11:53:43;93415.66;;;27.12;35.56
10988;BME280;5547;42.672;23.230;2022-08-03T11:56:12;93525.16;;;28.48;33.60
10988;BME280;5547;42.672;23.230;2022-08-03T11:58:45;93493.13;;;28.43;32.81
10988;BME280;5547;42.672;23.230;2022-08-03T12:01:11;93514.75;;;28.84;32.19
10988;BME280;5547;42.672;23.230;2022-08-03T12:03:37;93484.13;;;28.04;32.96
10988;BME280;5547;42.672;23.230;2022-08-03T12:06:08;93525.31;;;27.82;33.59
10988;BME280;5547;42.672;23.230;2022-08-03T12:08:34;93462.22;;;26.95;34.26
10988;BME280;5547;42.672;23.230;2022-08-03T12:11:01;93486.22;;;27.38;37.20
10988;BME280;5547;42.672;23.230;2022-08-03T12:13:43;93463.34;;;27.11;36.00
10988;BME280;5547;42.672;23.230;2022-08-03T12:16:10;93533.09;;;27.06;37.51
10988;BME280;5547;42.672;23.230;2022-08-03T12:18:42;93493.34;;;26.75;35.90
10988;BME280;5547;42.672;23.230;2022-08-03T12:21:09;93523.16;;;26.67;35.81
10988;BME280;5547;42.672;23.230;2022-08-03T12:23:36;93522.44;;;26.50;39.50
10988;BME280;5547;42.672;23.230;2022-08-03T12:26:07;93521.94;;;26.51;36.11
10988;BME280;5547;42.672;23.230;2022-08-03T12:28:34;93496.41;;;26.60;35.85
10988;BME280;5547;42.672;23.230;2022-08-03T12:31:02;93520.91;;;26.66;36.91
10988;BME280;5547;42.672;23.230;2022-08-03T12:33:28;93516.50;;;26.57;38.53
10988;BME280;5547;42.672;23.230;2022-08-03T12:36:07;93518.31;;;26.85;36.69
10988;BME280;5547;42.672;23.230;2022-08-03T12:38:35;93519.28;;;26.93;36.86
10988;BME280;5547;42.672;23.230;2022-08-03T12:41:09;93517.44;;;26.65;37.31
10988;BME280;5547;42.672;23.230;2022-08-03T12:43:50;93495.75;;;26.84;36.37
10988;BME280;5547;42.672;23.230;2022-08-03T12:46:17;93518.47;;;26.62;38.80
10988;BME280;5547;42.672;23.230;2022-08-03T12:49:11;93507.16;;;26.88;36.43
10988;BME280;5547;42.672;23.230;2022-08-03T12:54:17;93492.19;;;27.00;36.38
10988;BME280;5547;42.672;23.230;2022-08-03T12:57:09;93447.25;;;26.13;40.16
10988;BME280;5547;42.672;23.230;2022-08-03T12:59:40;93472.31;;;26.64;38.13
10988;BME280;5547;42.672;23.230;2022-08-03T13:04:46;93462.28;;;26.31;38.09
10988;BME280;5547;42.672;23.230;2022-08-03T13:07:13;93453.91;;;26.17;41.71
10988;BME280;5547;42.672;23.230;2022-08-03T13:09:53;93405.97;;;25.97;37.99
10988;BME280;5547;42.672;23.230;2022-08-03T13:12:21;93498.75;;;26.22;40.37
10988;BME280;5547;42.672;23.230;2022-08-03T13:14:49;93418.06;;;26.02;38.03
10988;BME280;5547;42.672;23.230;2022-08-03T13:17:16;93465.38;;;25.99;41.69
10988;BME280;5547;42.672;23.230;2022-08-03T13:19:42;93496.47;;;26.32;40.71
10988;BME280;5547;42.672;23.230;2022-08-03T13:22:19;93469.16;;;25.90;42.68
10988;BME280;5547;42.672;23.230;2022-08-03T13:24:47;93489.59;;;26.25;43.64
10988;BME280;5547;42.672;23.230;2022-08-03T13:27:13;93487.44;;;26.07;44.13
10988;BME280;5547;42.672;23.230;2022-08-03T13:29:39;93436.47;;;25.62;43.81
10988;BME280;5547;42.672;23.230;2022-08-03T13:32:05;93423.38;;;25.55;44.34
10988;BME280;5547;42.672;23.230;2022-08-03T13:34:32;93484.00;;;25.95;45.11
10988;BME280;5547;42.672;23.230;2022-08-03T13:36:57;93487.41;;;26.18;40.38
10988;BME280;5547;42.672;23.230;2022-08-03T13:39:23;93437.41;;;25.98;40.67
10988;BME280;5547;42.672;23.230;2022-08-03T13:41:48;93462.13;;;26.12;41.04
10988;BME280;5547;42.672;23.230;2022-08-03T13:44:14;93427.78;;;25.86;43.31
10988;BME280;5547;42.672;23.230;2022-08-03T13:46:40;93435.88;;;26.09;44.22
10988;BME280;5547;42.672;23.230;2022-08-03T13:49:06;93483.63;;;26.79;39.43
10988;BME280;5547;42.672;23.230;2022-08-03T13:51:32;93483.75;;;26.57;39.34